createdAt,value
2022-10-24T00:00:11.169Z,0.00
2022-10-24T00:01:11.114Z,0.00
2022-10-24T00:02:11.121Z,0.00
2022-10-24T00:03:11.211Z,0.00
2022-10-24T00:04:11.094Z,0.00
2022-10-24T00:05:11.083Z,0.00
2022-10-24T00:06:11.057Z,0.00
2022-10-24T00:07:11.060Z,0.00
2022-10-24T00:08:12.062Z,0.00
2022-10-24T00:09:11.042Z,0.00
2022-10-24T00:10:11.028Z,0.00
2022-10-24T00:11:11.030Z,0.00
2022-10-24T00:12:11.051Z,0.00
2022-10-24T00:13:11.005Z,0.00
2022-10-24T00:14:10.986Z,0.00
2022-10-24T00:15:10.973Z,0.00
2022-10-24T00:16:10.969Z,0.00
2022-10-24T00:17:10.944Z,0.00
2022-10-24T00:18:10.962Z,0.00
2022-10-24T00:19:10.955Z,0.00
2022-10-24T00:20:10.925Z,0.00
2022-10-24T00:21:10.921Z,0.00
2022-10-24T00:22:10.906Z,0.00
2022-10-24T00:23:10.904Z,0.00
2022-10-24T00:24:10.898Z,0.00
2022-10-24T00:25:10.873Z,0.00
2022-10-24T00:26:10.866Z,0.00
2022-10-24T00:27:10.864Z,0.00
2022-10-24T00:28:10.846Z,0.00
2022-10-24T00:29:10.862Z,0.00
2022-10-24T00:30:10.821Z,0.00
2022-10-24T00:31:10.809Z,0.00
2022-10-24T00:32:10.814Z,0.00
2022-10-24T00:33:10.792Z,0.00
2022-10-24T00:34:10.782Z,0.00
2022-10-24T00:35:10.807Z,0.00
2022-10-24T00:36:10.763Z,0.00
2022-10-24T00:37:10.850Z,0.00
2022-10-24T00:38:10.746Z,0.00
2022-10-24T00:39:10.735Z,0.00
2022-10-24T00:40:10.761Z,0.00
2022-10-24T00:41:10.767Z,0.00
2022-10-24T00:42:10.705Z,0.00
2022-10-24T00:43:10.707Z,0.00
2022-10-24T00:44:10.682Z,0.00
2022-10-24T00:45:10.681Z,0.00
2022-10-24T00:46:10.693Z,0.00
2022-10-24T00:47:10.647Z,0.00
2022-10-24T00:48:10.656Z,0.00
2022-10-24T00:49:10.636Z,0.00
2022-10-24T00:50:10.626Z,0.00
2022-10-24T00:51:10.618Z,0.00
2022-10-24T00:52:10.616Z,0.00
2022-10-24T00:53:10.585Z,0.00
2022-10-24T00:54:10.579Z,0.00
2022-10-24T00:55:10.565Z,0.00
2022-10-24T00:56:10.563Z,0.00
2022-10-24T00:57:10.579Z,0.00
2022-10-24T00:58:10.530Z,0.00
2022-10-24T00:59:10.536Z,0.00
2022-10-24T01:00:10.543Z,0.00
2022-10-24T01:01:10.645Z,0.00
2022-10-24T01:02:11.536Z,0.00
2022-10-24T01:03:10.512Z,0.00
2022-10-24T01:04:10.485Z,0.00
2022-10-24T01:05:10.479Z,0.00
2022-10-24T01:06:10.443Z,0.00
2022-10-24T01:07:11.477Z,0.00
2022-10-24T01:08:10.507Z,0.00
2022-10-24T01:09:10.422Z,0.00
2022-10-24T01:10:10.418Z,0.00
2022-10-24T01:11:10.414Z,0.00
2022-10-24T01:12:10.415Z,0.00
2022-10-24T01:13:10.457Z,0.00
2022-10-24T01:14:10.392Z,0.00
2022-10-24T01:15:10.370Z,0.00
2022-10-24T01:16:10.362Z,0.00
2022-10-24T01:17:10.343Z,0.00
2022-10-24T01:18:10.345Z,0.00
2022-10-24T01:19:10.362Z,0.00
2022-10-24T01:20:10.318Z,0.00
2022-10-24T01:21:10.348Z,0.00
2022-10-24T01:22:10.303Z,0.00
2022-10-24T01:23:11.304Z,0.00
2022-10-24T01:24:10.280Z,0.00
2022-10-24T01:25:10.394Z,0.00
2022-10-24T01:26:10.501Z,0.00
2022-10-24T01:27:10.315Z,0.00
2022-10-24T01:28:10.821Z,0.00
2022-10-24T01:29:10.233Z,0.00
2022-10-24T01:30:10.247Z,0.00
2022-10-24T01:31:10.218Z,0.00
2022-10-24T01:32:10.227Z,0.00
2022-10-24T01:33:10.194Z,0.00
2022-10-24T01:34:10.192Z,0.00
2022-10-24T01:35:10.188Z,0.00
2022-10-24T01:36:10.187Z,0.00
2022-10-24T01:37:10.188Z,0.00
2022-10-24T01:38:10.150Z,0.00
2022-10-24T01:39:10.145Z,0.00
2022-10-24T01:40:10.136Z,0.00
2022-10-24T01:41:10.120Z,0.00
2022-10-24T01:42:10.140Z,0.00
2022-10-24T01:43:10.122Z,0.00
2022-10-24T01:44:10.101Z,0.00
2022-10-24T01:45:10.085Z,0.00
2022-10-24T01:46:10.067Z,0.00
2022-10-24T01:47:10.057Z,0.00
2022-10-24T01:48:10.077Z,0.00
2022-10-24T01:49:10.034Z,0.00
2022-10-24T01:50:10.025Z,0.00
2022-10-24T01:51:10.018Z,0.00
2022-10-24T01:52:10.085Z,0.00
2022-10-24T01:53:10.001Z,0.00
2022-10-24T01:54:10.014Z,0.00
2022-10-24T01:55:10.985Z,0.00
2022-10-24T01:56:09.968Z,0.00
2022-10-24T01:57:09.967Z,0.00
2022-10-24T01:58:09.950Z,0.00
2022-10-24T01:59:09.943Z,0.00
2022-10-24T02:00:10.011Z,0.00
2022-10-24T02:01:10.001Z,0.00
2022-10-24T02:02:09.931Z,0.00
2022-10-24T02:03:09.906Z,0.00
2022-10-24T02:04:09.883Z,0.00
2022-10-24T02:05:09.896Z,0.00
2022-10-24T02:06:09.866Z,0.00
2022-10-24T02:07:09.857Z,0.00
2022-10-24T02:08:09.842Z,0.00
2022-10-24T02:09:09.844Z,0.00
2022-10-24T02:10:09.854Z,0.00
2022-10-24T02:11:09.822Z,0.00
2022-10-24T02:12:09.833Z,0.00
2022-10-24T02:13:09.817Z,0.00
2022-10-24T02:14:09.790Z,0.00
2022-10-24T02:15:11.404Z,0.00
2022-10-24T02:16:09.786Z,0.00
2022-10-24T02:17:09.770Z,0.00
2022-10-24T02:18:09.788Z,0.00
2022-10-24T02:19:10.394Z,0.00
2022-10-24T02:20:10.759Z,0.00
2022-10-24T02:21:10.014Z,0.00
2022-10-24T02:22:09.719Z,0.00
2022-10-24T02:23:09.711Z,0.00
2022-10-24T02:24:09.698Z,0.00
2022-10-24T02:25:09.689Z,0.00
2022-10-24T02:26:09.703Z,0.00
2022-10-24T02:27:09.667Z,0.00
2022-10-24T02:28:09.690Z,0.00
2022-10-24T02:29:09.658Z,0.00
2022-10-24T02:30:09.629Z,0.00
2022-10-24T02:31:09.625Z,0.00
2022-10-24T02:32:09.629Z,0.00
2022-10-24T02:33:09.611Z,0.00
2022-10-24T02:34:09.628Z,0.00
2022-10-24T02:35:09.591Z,0.00
2022-10-24T02:36:09.584Z,0.00
2022-10-24T02:37:09.585Z,0.00
2022-10-24T02:38:09.584Z,0.00
2022-10-24T02:39:09.544Z,0.00
2022-10-24T02:40:09.542Z,0.00
2022-10-24T02:41:10.536Z,0.00
2022-10-24T02:42:09.517Z,0.00
2022-10-24T02:43:09.652Z,0.00
2022-10-24T02:44:09.761Z,0.00
2022-10-24T02:45:09.498Z,0.00
2022-10-24T02:46:09.493Z,0.00
2022-10-24T02:47:09.483Z,0.00
2022-10-24T02:48:09.473Z,0.00
2022-10-24T02:49:09.474Z,0.00
2022-10-24T02:50:09.454Z,0.00
2022-10-24T02:51:09.438Z,0.00
2022-10-24T02:52:09.434Z,0.00
2022-10-24T02:53:09.419Z,0.00
2022-10-24T02:54:41.317Z,0.00
2022-10-24T02:55:09.397Z,0.00
2022-10-24T02:56:09.393Z,0.00
2022-10-24T02:57:09.382Z,0.00
2022-10-24T02:58:09.371Z,0.00
2022-10-24T03:00:09.378Z,0.00
2022-10-24T03:01:09.453Z,0.00
2022-10-24T03:02:09.623Z,0.00
2022-10-24T03:03:10.912Z,0.00
2022-10-24T03:04:09.314Z,0.00
2022-10-24T03:05:09.312Z,0.00
2022-10-24T03:06:09.294Z,0.00
2022-10-24T03:07:09.288Z,0.00
2022-10-24T03:08:09.266Z,0.00
2022-10-24T03:09:09.273Z,0.00
2022-10-24T03:10:09.291Z,0.00
2022-10-24T03:11:09.267Z,0.00
2022-10-24T03:12:09.234Z,0.00
2022-10-24T03:13:09.227Z,0.00
2022-10-24T03:14:09.301Z,0.00
2022-10-24T03:15:09.236Z,0.00
2022-10-24T03:16:11.722Z,0.00
2022-10-24T03:17:09.183Z,0.00
2022-10-24T03:18:09.186Z,0.00
2022-10-24T03:19:09.170Z,0.00
2022-10-24T03:20:09.158Z,0.00
2022-10-24T03:21:09.188Z,0.00
2022-10-24T03:22:09.144Z,0.00
2022-10-24T03:23:09.133Z,0.00
2022-10-24T03:24:09.138Z,0.00
2022-10-24T03:25:09.118Z,0.00
2022-10-24T03:26:09.089Z,0.00
2022-10-24T03:27:09.118Z,0.00
2022-10-24T03:28:09.081Z,0.00
2022-10-24T03:29:09.086Z,0.00
2022-10-24T03:30:09.080Z,0.00
2022-10-24T03:31:09.059Z,0.00
2022-10-24T03:32:09.045Z,0.00
2022-10-24T03:33:09.039Z,0.00
2022-10-24T03:34:09.039Z,0.00
2022-10-24T03:35:11.727Z,0.00
2022-10-24T03:36:11.023Z,0.00
2022-10-24T03:37:08.994Z,0.00
2022-10-24T03:38:08.994Z,0.00
2022-10-24T03:39:08.969Z,0.00
2022-10-24T03:40:08.959Z,0.00
2022-10-24T03:41:08.979Z,0.00
2022-10-24T03:42:08.942Z,0.00
2022-10-24T03:43:08.947Z,0.00
2022-10-24T03:44:08.930Z,0.00
2022-10-24T03:45:08.915Z,0.00
2022-10-24T03:46:08.915Z,0.00
2022-10-24T03:47:08.905Z,0.00
2022-10-24T03:48:08.884Z,0.00
2022-10-24T03:49:08.911Z,0.00
2022-10-24T03:50:08.871Z,0.00
2022-10-24T03:51:08.868Z,0.00
2022-10-24T03:52:08.867Z,0.00
2022-10-24T03:53:08.865Z,0.00
2022-10-24T03:54:08.849Z,0.00
2022-10-24T03:55:08.828Z,0.00
2022-10-24T03:56:08.807Z,0.00
2022-10-24T03:57:08.834Z,0.00
2022-10-24T03:58:08.810Z,0.00
2022-10-24T03:59:08.781Z,0.00
2022-10-24T04:00:08.823Z,0.00
2022-10-24T04:01:08.865Z,0.00
2022-10-24T04:02:08.757Z,0.00
2022-10-24T04:03:08.749Z,0.00
2022-10-24T04:04:08.731Z,0.00
2022-10-24T04:05:08.742Z,0.00
2022-10-24T04:06:08.714Z,0.00
2022-10-24T04:07:08.714Z,0.00
2022-10-24T04:08:08.709Z,0.00
2022-10-24T04:09:08.677Z,0.00
2022-10-24T04:10:08.701Z,0.00
2022-10-24T04:11:08.695Z,0.00
2022-10-24T04:12:08.664Z,0.00
2022-10-24T04:13:08.636Z,0.00
2022-10-24T04:14:08.652Z,0.00
2022-10-24T04:15:08.647Z,0.00
2022-10-24T04:16:08.645Z,0.00
2022-10-24T04:17:08.611Z,0.00
2022-10-24T04:18:08.595Z,0.00
2022-10-24T04:19:08.597Z,0.00
2022-10-24T04:20:08.582Z,0.00
2022-10-24T04:21:08.583Z,0.00
2022-10-24T04:22:08.597Z,0.00
2022-10-24T04:23:08.555Z,0.00
2022-10-24T04:24:08.548Z,0.00
2022-10-24T04:25:08.533Z,0.00
2022-10-24T04:26:08.549Z,0.00
2022-10-24T04:27:08.512Z,0.00
2022-10-24T04:28:08.506Z,0.00
2022-10-24T04:29:08.497Z,0.00
2022-10-24T04:30:11.551Z,0.00
2022-10-24T04:31:08.463Z,0.00
2022-10-24T04:32:08.472Z,0.00
2022-10-24T04:33:08.453Z,0.00
2022-10-24T04:34:08.451Z,0.00
2022-10-24T04:35:08.460Z,0.00
2022-10-24T04:36:08.421Z,0.00
2022-10-24T04:37:09.441Z,0.00
2022-10-24T04:38:08.417Z,0.00
2022-10-24T04:39:08.413Z,0.00
2022-10-24T04:40:08.397Z,0.00
2022-10-24T04:41:11.230Z,0.00
2022-10-24T04:42:08.396Z,0.00
2022-10-24T04:43:08.362Z,0.00
2022-10-24T04:44:08.349Z,0.00
2022-10-24T04:45:08.337Z,0.00
2022-10-24T04:46:08.330Z,0.00
2022-10-24T04:47:09.366Z,0.00
2022-10-24T04:48:08.346Z,0.00
2022-10-24T04:49:08.295Z,0.00
2022-10-24T04:50:08.317Z,0.00
2022-10-24T04:51:08.276Z,0.00
2022-10-24T04:52:08.269Z,0.00
2022-10-24T04:53:08.279Z,0.00
2022-10-24T04:54:08.251Z,0.00
2022-10-24T04:55:08.257Z,0.00
2022-10-24T04:56:08.224Z,0.00
2022-10-24T04:57:08.226Z,0.00
2022-10-24T04:58:08.242Z,0.00
2022-10-24T04:59:08.197Z,0.00
2022-10-24T05:00:08.190Z,0.00
2022-10-24T05:01:08.212Z,0.00
2022-10-24T05:02:08.236Z,0.00
2022-10-24T05:03:08.166Z,0.00
2022-10-24T05:04:08.149Z,0.00
2022-10-24T05:05:08.138Z,0.00
2022-10-24T05:06:08.150Z,0.00
2022-10-24T05:07:08.134Z,0.00
2022-10-24T05:08:08.132Z,0.00
2022-10-24T05:09:08.109Z,0.00
2022-10-24T05:10:08.092Z,0.00
2022-10-24T05:11:08.078Z,0.00
2022-10-24T05:12:08.107Z,0.00
2022-10-24T05:13:08.082Z,0.00
2022-10-24T05:14:08.066Z,0.00
2022-10-24T05:15:08.037Z,0.00
2022-10-24T05:16:08.031Z,0.00
2022-10-24T05:17:08.039Z,0.00
2022-10-24T05:18:08.016Z,0.00
2022-10-24T05:19:08.005Z,0.00
2022-10-24T05:20:07.999Z,0.00
2022-10-24T05:21:07.973Z,0.00
2022-10-24T05:22:10.741Z,0.00
2022-10-24T05:23:07.963Z,0.00
2022-10-24T05:24:07.940Z,0.00
2022-10-24T05:25:07.956Z,0.00
2022-10-24T05:26:07.929Z,0.00
2022-10-24T05:27:07.932Z,0.00
2022-10-24T05:28:07.934Z,0.00
2022-10-24T05:30:08.881Z,0.00
2022-10-24T05:31:07.876Z,0.00
2022-10-24T05:32:07.875Z,0.00
2022-10-24T05:33:07.898Z,0.00
2022-10-24T05:34:07.861Z,0.00
2022-10-24T05:35:07.856Z,0.00
2022-10-24T05:36:07.839Z,0.00
2022-10-24T05:37:07.825Z,0.00
2022-10-24T05:38:07.846Z,0.00
2022-10-24T05:39:07.817Z,0.00
2022-10-24T05:40:07.805Z,0.00
2022-10-24T05:41:07.802Z,0.00
2022-10-24T05:42:07.781Z,0.00
2022-10-24T05:43:07.803Z,0.00
2022-10-24T05:44:07.774Z,0.00
2022-10-24T05:45:07.758Z,0.00
2022-10-24T05:46:07.748Z,0.00
2022-10-24T05:47:07.739Z,0.00
2022-10-24T05:48:07.743Z,0.00
2022-10-24T05:49:07.719Z,0.00
2022-10-24T05:50:07.712Z,0.00
2022-10-24T05:51:07.711Z,0.00
2022-10-24T05:52:07.689Z,0.00
2022-10-24T05:53:07.720Z,0.00
2022-10-24T05:54:07.701Z,0.00
2022-10-24T05:55:08.442Z,0.00
2022-10-24T05:56:08.658Z,0.00
2022-10-24T05:57:07.678Z,0.00
2022-10-24T05:58:07.625Z,5.62
2022-10-24T05:59:07.641Z,5.62
2022-10-24T06:00:07.609Z,5.62
2022-10-24T06:01:07.954Z,5.62
2022-10-24T06:02:07.665Z,5.62
2022-10-24T06:03:07.690Z,5.62
2022-10-24T06:04:10.044Z,5.62
2022-10-24T06:05:08.795Z,5.62
2022-10-24T06:06:08.055Z,11.25
2022-10-24T06:07:07.561Z,11.25
2022-10-24T06:08:07.565Z,11.25
2022-10-24T06:09:07.525Z,16.88
2022-10-24T06:10:07.538Z,16.88
2022-10-24T06:11:07.550Z,16.88
2022-10-24T06:12:07.497Z,22.50
2022-10-24T06:13:07.495Z,22.50
2022-10-24T06:14:07.492Z,28.12
2022-10-24T06:15:07.478Z,28.12
2022-10-24T06:16:07.483Z,33.75
2022-10-24T06:17:07.454Z,33.75
2022-10-24T06:18:07.448Z,39.38
2022-10-24T06:19:07.448Z,39.38
2022-10-24T06:20:07.432Z,39.38
2022-10-24T06:21:07.409Z,39.38
2022-10-24T06:22:07.436Z,45.00
2022-10-24T06:23:07.415Z,45.00
2022-10-24T06:24:07.394Z,39.38
2022-10-24T06:25:07.377Z,39.38
2022-10-24T06:26:07.406Z,39.38
2022-10-24T06:27:07.362Z,39.38
2022-10-24T06:29:07.319Z,39.38
2022-10-24T06:30:07.334Z,45.00
2022-10-24T06:31:07.343Z,50.62
2022-10-24T06:32:07.306Z,56.25
2022-10-24T06:33:07.288Z,56.25
2022-10-24T06:34:07.287Z,56.25
2022-10-24T06:35:07.273Z,56.25
2022-10-24T06:36:07.267Z,61.88
2022-10-24T06:37:07.275Z,67.50
2022-10-24T06:38:07.245Z,73.12
2022-10-24T06:39:07.243Z,84.38
2022-10-24T06:40:07.225Z,90.00
2022-10-24T06:41:07.242Z,101.25
2022-10-24T06:42:07.212Z,106.88
2022-10-24T06:43:07.227Z,112.50
2022-10-24T06:44:10.867Z,118.12
2022-10-24T06:45:08.193Z,123.75
2022-10-24T06:46:07.182Z,129.38
2022-10-24T06:47:07.170Z,135.00
2022-10-24T06:48:07.268Z,140.62
2022-10-24T06:49:07.163Z,140.62
2022-10-24T06:50:08.133Z,146.25
2022-10-24T06:51:07.118Z,146.25
2022-10-24T06:52:07.114Z,151.88
2022-10-24T06:53:07.129Z,163.12
2022-10-24T06:54:07.122Z,163.12
2022-10-24T06:55:07.082Z,168.75
2022-10-24T06:56:07.072Z,174.38
2022-10-24T06:57:07.054Z,180.00
2022-10-24T06:58:07.086Z,185.62
2022-10-24T06:59:07.046Z,191.25
2022-10-24T07:00:08.039Z,196.88
2022-10-24T07:01:07.130Z,202.50
2022-10-24T07:02:07.066Z,202.50
2022-10-24T07:03:07.091Z,208.12
2022-10-24T07:04:07.011Z,208.12
2022-10-24T07:05:06.990Z,213.75
2022-10-24T07:06:06.981Z,213.75
2022-10-24T07:07:06.960Z,213.75
2022-10-24T07:08:06.961Z,213.75
2022-10-24T07:09:10.235Z,208.12
2022-10-24T07:10:06.935Z,208.12
2022-10-24T07:11:06.915Z,208.12
2022-10-24T07:12:06.957Z,202.50
2022-10-24T07:13:06.896Z,202.50
2022-10-24T07:14:09.097Z,196.88
2022-10-24T07:15:07.898Z,196.88
2022-10-24T07:16:06.867Z,196.88
2022-10-24T07:17:06.892Z,191.25
2022-10-24T07:18:06.857Z,191.25
2022-10-24T07:19:06.854Z,191.25
2022-10-24T07:20:06.827Z,191.25
2022-10-24T07:21:06.818Z,191.25
2022-10-24T07:22:06.836Z,191.25
2022-10-24T07:23:06.797Z,196.88
2022-10-24T07:24:06.789Z,196.88
2022-10-24T07:25:06.785Z,202.50
2022-10-24T07:26:06.767Z,202.50
2022-10-24T07:27:06.750Z,202.50
2022-10-24T07:28:06.770Z,202.50
2022-10-24T07:29:06.736Z,202.50
2022-10-24T07:30:06.727Z,208.12
2022-10-24T07:31:06.725Z,208.12
2022-10-24T07:32:06.712Z,208.12
2022-10-24T07:33:06.722Z,213.75
2022-10-24T07:34:06.707Z,213.75
2022-10-24T07:35:06.693Z,219.38
2022-10-24T07:36:06.673Z,219.38
2022-10-24T07:37:06.935Z,225.00
2022-10-24T07:38:06.663Z,225.00
2022-10-24T07:39:06.739Z,225.00
2022-10-24T07:40:06.627Z,230.62
2022-10-24T07:41:06.615Z,230.62
2022-10-24T07:42:06.623Z,236.25
2022-10-24T07:43:06.618Z,241.88
2022-10-24T07:44:06.608Z,241.88
2022-10-24T07:45:06.602Z,241.88
2022-10-24T07:46:06.569Z,247.50
2022-10-24T07:47:06.559Z,247.50
2022-10-24T07:48:06.548Z,247.50
2022-10-24T07:49:06.541Z,253.12
2022-10-24T07:50:06.541Z,253.12
2022-10-24T07:51:06.549Z,258.75
2022-10-24T07:52:06.519Z,258.75
2022-10-24T07:53:06.500Z,253.12
2022-10-24T07:54:06.500Z,258.75
2022-10-24T07:55:06.475Z,253.12
2022-10-24T07:56:06.474Z,258.75
2022-10-24T07:57:06.498Z,253.12
2022-10-24T07:58:06.446Z,253.12
2022-10-24T07:59:09.591Z,258.75
2022-10-24T08:00:07.433Z,258.75
2022-10-24T08:01:06.466Z,258.75
2022-10-24T08:02:06.428Z,258.75
2022-10-24T08:03:06.433Z,253.12
2022-10-24T08:04:06.389Z,253.12
2022-10-24T08:05:06.388Z,253.12
2022-10-24T08:06:06.377Z,253.12
2022-10-24T08:07:06.364Z,258.75
2022-10-24T08:09:08.360Z,258.75
2022-10-24T08:10:06.334Z,258.75
2022-10-24T08:11:06.322Z,253.12
2022-10-24T08:12:06.329Z,253.12
2022-10-24T08:13:09.253Z,247.50
2022-10-24T08:14:07.320Z,241.88
2022-10-24T08:15:06.279Z,236.25
2022-10-24T08:16:06.275Z,225.00
2022-10-24T08:17:06.256Z,213.75
2022-10-24T08:18:06.249Z,208.12
2022-10-24T08:19:06.259Z,208.12
2022-10-24T08:20:06.286Z,208.12
2022-10-24T08:21:06.226Z,213.75
2022-10-24T08:22:06.220Z,213.75
2022-10-24T08:23:06.221Z,213.75
2022-10-24T08:24:06.207Z,208.12
2022-10-24T08:25:06.185Z,202.50
2022-10-24T08:26:06.187Z,202.50
2022-10-24T08:27:06.166Z,202.50
2022-10-24T08:28:08.264Z,196.88
2022-10-24T08:29:06.163Z,196.88
2022-10-24T08:30:06.134Z,191.25
2022-10-24T08:31:06.188Z,185.62
2022-10-24T08:32:06.099Z,185.62
2022-10-24T08:33:06.101Z,180.00
2022-10-24T08:34:06.096Z,174.38
2022-10-24T08:35:06.067Z,174.38
2022-10-24T08:36:06.091Z,163.12
2022-10-24T08:37:06.059Z,157.50
2022-10-24T08:38:06.051Z,157.50
2022-10-24T08:39:06.052Z,157.50
2022-10-24T08:40:06.037Z,157.50
2022-10-24T08:41:06.062Z,163.12
2022-10-24T08:42:06.014Z,168.75
2022-10-24T08:43:05.997Z,168.75
2022-10-24T08:44:05.991Z,180.00
2022-10-24T08:45:05.985Z,185.62
2022-10-24T08:46:05.994Z,196.88
2022-10-24T08:47:05.963Z,202.50
2022-10-24T08:48:06.516Z,208.12
2022-10-24T08:49:05.953Z,219.38
2022-10-24T08:50:05.933Z,225.00
2022-10-24T08:51:05.952Z,236.25
2022-10-24T08:52:05.920Z,241.88
2022-10-24T08:53:05.902Z,253.12
2022-10-24T08:55:48.626Z,258.75
2022-10-24T08:56:05.893Z,253.12
2022-10-24T08:57:05.872Z,253.12
2022-10-24T08:58:05.891Z,253.12
2022-10-24T08:59:05.846Z,247.50
2022-10-24T09:00:05.844Z,247.50
2022-10-24T09:01:05.885Z,247.50
2022-10-24T09:02:07.793Z,247.50
2022-10-24T09:03:05.858Z,241.88
2022-10-24T09:04:05.787Z,241.88
2022-10-24T09:05:05.791Z,241.88
2022-10-24T09:06:05.774Z,241.88
2022-10-24T09:07:05.758Z,247.50
2022-10-24T09:08:05.780Z,247.50
2022-10-24T09:09:05.734Z,241.88
2022-10-24T09:10:05.738Z,247.50
2022-10-24T09:11:05.739Z,247.50
2022-10-24T09:12:05.712Z,247.50
2022-10-24T09:13:05.694Z,247.50
2022-10-24T09:14:05.724Z,247.50
2022-10-24T09:15:05.690Z,247.50
2022-10-24T09:16:05.670Z,247.50
2022-10-24T09:17:05.707Z,253.12
2022-10-24T09:18:05.667Z,253.12
2022-10-24T09:19:05.638Z,258.75
2022-10-24T09:20:05.626Z,264.38
2022-10-24T09:21:05.642Z,270.00
2022-10-24T09:22:05.623Z,270.00
2022-10-24T09:23:05.607Z,275.62
2022-10-24T09:24:05.585Z,281.25
2022-10-24T09:25:05.599Z,281.25
2022-10-24T09:26:05.579Z,286.88
2022-10-24T09:27:05.563Z,286.88
2022-10-24T09:28:05.548Z,292.50
2022-10-24T09:29:05.565Z,298.12
2022-10-24T09:30:05.535Z,298.12
2022-10-24T09:31:05.520Z,303.75
2022-10-24T09:32:05.513Z,315.00
2022-10-24T09:33:05.507Z,315.00
2022-10-24T09:34:05.515Z,315.00
2022-10-24T09:35:05.500Z,320.62
2022-10-24T09:36:05.479Z,320.62
2022-10-24T09:37:05.479Z,326.25
2022-10-24T09:38:05.462Z,326.25
2022-10-24T09:39:05.462Z,337.50
2022-10-24T09:40:05.422Z,343.12
2022-10-24T09:41:05.441Z,348.75
2022-10-24T09:42:05.416Z,354.38
2022-10-24T09:43:05.401Z,360.00
2022-10-24T09:44:05.401Z,360.00
2022-10-24T09:45:05.414Z,371.25
2022-10-24T09:46:05.395Z,376.88
2022-10-24T09:47:05.383Z,376.88
2022-10-24T09:48:05.411Z,382.50
2022-10-24T09:49:05.352Z,388.12
2022-10-24T09:50:05.358Z,388.12
2022-10-24T09:51:05.319Z,393.75
2022-10-24T09:52:05.312Z,399.38
2022-10-24T09:53:05.324Z,399.38
2022-10-24T09:54:05.289Z,405.00
2022-10-24T09:55:05.281Z,405.00
2022-10-24T09:56:05.269Z,410.62
2022-10-24T09:57:05.286Z,410.62
2022-10-24T09:58:05.297Z,416.25
2022-10-24T09:59:05.243Z,416.25
2022-10-24T10:00:05.245Z,416.25
2022-10-24T10:01:05.359Z,421.88
2022-10-24T10:02:05.281Z,421.88
2022-10-24T10:03:05.230Z,427.50
2022-10-24T10:04:09.354Z,427.50
2022-10-24T10:05:06.183Z,433.12
2022-10-24T10:06:05.158Z,438.75
2022-10-24T10:08:06.182Z,450.00
2022-10-24T10:09:05.141Z,455.62
2022-10-24T10:10:05.137Z,455.62
2022-10-24T10:11:05.144Z,466.88
2022-10-24T10:12:05.105Z,472.50
2022-10-24T10:13:05.114Z,500.62
2022-10-24T10:14:05.108Z,579.38
2022-10-24T10:15:05.095Z,624.38
2022-10-24T10:16:05.071Z,573.75
2022-10-24T10:17:05.060Z,528.75
2022-10-24T10:18:05.065Z,528.75
2022-10-24T10:19:05.060Z,489.38
2022-10-24T10:20:05.035Z,472.50
2022-10-24T10:21:05.027Z,483.75
2022-10-24T10:22:05.018Z,523.12
2022-10-24T10:23:05.010Z,506.25
2022-10-24T10:24:05.011Z,523.12
2022-10-24T10:25:05.052Z,534.38
2022-10-24T10:26:04.977Z,528.75
2022-10-24T10:27:04.967Z,506.25
2022-10-24T10:28:05.954Z,590.62
2022-10-24T10:29:04.953Z,568.12
2022-10-24T10:30:04.938Z,579.38
2022-10-24T10:31:04.948Z,523.12
2022-10-24T10:32:04.913Z,551.25
2022-10-24T10:33:04.897Z,511.88
2022-10-24T10:34:04.911Z,489.38
2022-10-24T10:35:04.886Z,472.50
2022-10-24T10:36:04.890Z,438.75
2022-10-24T10:37:04.863Z,433.12
2022-10-24T10:38:04.875Z,427.50
2022-10-24T10:39:04.846Z,455.62
2022-10-24T10:40:04.877Z,455.62
2022-10-24T10:41:04.832Z,455.62
2022-10-24T10:42:04.847Z,455.62
2022-10-24T10:43:04.815Z,450.00
2022-10-24T10:44:05.814Z,450.00
2022-10-24T10:45:04.794Z,444.38
2022-10-24T10:46:05.786Z,444.38
2022-10-24T10:47:04.789Z,444.38
2022-10-24T10:48:04.778Z,433.12
2022-10-24T10:49:04.741Z,416.25
2022-10-24T10:50:04.784Z,393.75
2022-10-24T10:51:07.415Z,382.50
2022-10-24T10:52:04.724Z,376.88
2022-10-24T10:53:04.738Z,376.88
2022-10-24T10:54:04.699Z,393.75
2022-10-24T10:55:04.692Z,438.75
2022-10-24T10:56:04.679Z,450.00
2022-10-24T10:57:04.663Z,461.25
2022-10-24T10:58:04.751Z,472.50
2022-10-24T10:59:04.643Z,506.25
2022-10-24T11:00:04.659Z,495.00
2022-10-24T11:01:04.711Z,511.88
2022-10-24T11:02:04.747Z,562.50
2022-10-24T11:03:04.594Z,540.00
2022-10-24T11:04:04.653Z,545.62
2022-10-24T11:05:04.588Z,534.38
2022-10-24T11:06:04.598Z,511.88
2022-10-24T11:07:04.573Z,483.75
2022-10-24T11:08:04.571Z,461.25
2022-10-24T11:09:04.575Z,455.62
2022-10-24T11:10:04.545Z,438.75
2022-10-24T11:11:04.537Z,416.25
2022-10-24T11:12:04.531Z,399.38
2022-10-24T11:13:04.510Z,393.75
2022-10-24T11:14:04.539Z,399.38
2022-10-24T11:15:04.509Z,410.62
2022-10-24T11:16:04.490Z,438.75
2022-10-24T11:17:04.480Z,461.25
2022-10-24T11:18:04.523Z,466.88
2022-10-24T11:19:04.528Z,461.25
2022-10-24T11:20:04.585Z,466.88
2022-10-24T11:21:04.424Z,466.88
2022-10-24T11:22:04.434Z,483.75
2022-10-24T11:23:04.425Z,613.12
2022-10-24T11:24:04.408Z,652.50
2022-10-24T11:25:04.411Z,624.38
2022-10-24T11:26:04.463Z,545.62
2022-10-24T11:27:04.422Z,534.38
2022-10-24T11:28:04.356Z,478.12
2022-10-24T11:29:04.352Z,455.62
2022-10-24T11:30:04.348Z,450.00
2022-10-24T11:31:04.339Z,393.75
2022-10-24T11:33:05.315Z,410.62
2022-10-24T11:34:04.351Z,427.50
2022-10-24T11:35:04.300Z,461.25
2022-10-24T11:36:04.290Z,478.12
2022-10-24T11:37:04.277Z,450.00
2022-10-24T11:38:04.288Z,438.75
2022-10-24T11:39:04.290Z,427.50
2022-10-24T11:40:04.261Z,410.62
2022-10-24T11:41:04.271Z,416.25
2022-10-24T11:42:04.226Z,405.00
2022-10-24T11:43:04.225Z,438.75
2022-10-24T11:44:04.227Z,450.00
2022-10-24T11:45:04.208Z,455.62
2022-10-24T11:46:04.208Z,461.25
2022-10-24T11:47:06.471Z,478.12
2022-10-24T11:48:04.175Z,495.00
2022-10-24T11:49:05.174Z,517.50
2022-10-24T11:50:04.175Z,495.00
2022-10-24T11:51:04.148Z,444.38
2022-10-24T11:52:04.138Z,421.88
2022-10-24T11:53:04.129Z,478.12
2022-10-24T11:54:04.135Z,489.38
2022-10-24T11:55:04.129Z,483.75
2022-10-24T11:56:04.093Z,478.12
2022-10-24T11:57:04.196Z,455.62
2022-10-24T11:58:04.091Z,455.62
2022-10-24T11:59:04.067Z,455.62
2022-10-24T12:00:04.068Z,472.50
2022-10-24T12:01:04.122Z,461.25
2022-10-24T12:02:04.039Z,455.62
2022-10-24T12:03:04.078Z,444.38
2022-10-24T12:04:04.026Z,421.88
2022-10-24T12:05:04.006Z,421.88
2022-10-24T12:06:04.007Z,478.12
2022-10-24T12:07:03.978Z,472.50
2022-10-24T12:08:03.975Z,466.88
2022-10-24T12:09:03.985Z,450.00
2022-10-24T12:10:03.991Z,438.75
2022-10-24T12:11:03.942Z,410.62
2022-10-24T12:12:03.960Z,393.75
2022-10-24T12:13:03.929Z,348.75
2022-10-24T12:14:03.955Z,337.50
2022-10-24T12:15:03.941Z,331.88
2022-10-24T12:16:03.898Z,326.25
2022-10-24T12:17:03.887Z,343.12
2022-10-24T12:18:03.884Z,337.50
2022-10-24T12:19:03.869Z,326.25
2022-10-24T12:20:03.856Z,331.88
2022-10-24T12:21:03.851Z,331.88
2022-10-24T12:22:03.866Z,343.12
2022-10-24T12:23:03.819Z,337.50
2022-10-24T12:24:03.829Z,326.25
2022-10-24T12:25:03.812Z,326.25
2022-10-24T12:26:03.812Z,309.38
2022-10-24T12:27:03.793Z,337.50
2022-10-24T12:28:03.766Z,331.88
2022-10-24T12:29:03.785Z,348.75
2022-10-24T12:30:03.761Z,371.25
2022-10-24T12:31:03.768Z,399.38
2022-10-24T12:32:03.728Z,450.00
2022-10-24T12:33:03.726Z,489.38
2022-10-24T12:34:03.726Z,585.00
2022-10-24T12:35:29.996Z,551.25
2022-10-24T12:36:05.736Z,551.25
2022-10-24T12:37:03.695Z,540.00
2022-10-24T12:38:03.702Z,562.50
2022-10-24T12:39:03.675Z,523.12
2022-10-24T12:40:03.662Z,500.62
2022-10-24T12:41:03.651Z,466.88
2022-10-24T12:42:03.655Z,579.38
2022-10-24T12:43:03.670Z,562.50
2022-10-24T12:44:03.616Z,540.00
2022-10-24T12:45:03.613Z,461.25
2022-10-24T12:46:09.539Z,393.75
2022-10-24T12:47:04.592Z,365.62
2022-10-24T12:48:03.620Z,382.50
2022-10-24T12:49:03.569Z,348.75
2022-10-24T12:50:03.576Z,354.38
2022-10-24T12:51:03.558Z,399.38
2022-10-24T12:52:03.597Z,472.50
2022-10-24T12:53:03.557Z,371.25
2022-10-24T12:54:03.525Z,354.38
2022-10-24T12:55:03.520Z,309.38
2022-10-24T12:56:03.496Z,281.25
2022-10-24T12:57:03.493Z,264.38
2022-10-24T12:58:03.562Z,247.50
2022-10-24T12:59:03.497Z,241.88